Gapville, Kentucky
Current Conditions -  °F | °C
As of 4:35 PM on Saturday 25 Oct 2014 (Local Time) from KSJS Reporting Station
Scattered Clouds Scattered Clouds  
Wind Chill: 67°   Ceiling: Unl
Heat Index: 67°   Visibility: 10mi
Dew Point: 51°   Wind: 9mph
Humidity: 57%   Direction: 250°WSW
Pressure: 29.97"   Gusts: NA
Location:  37.63°N, 82.96°W
Report Text: KSJS 252035Z AUTO 25008KT 10SM SCT026 SCT039 19/11 A2997 RMK AO2 T01920105
Loading
Personal Weather Stations






























Interactive Weather Map
Tropical Storm Tracking
New forecast layout! Learn more

10-Day Weather Forecast

Advertisements
Track Severe Weather on mobile